Estación de Lebu INIA
Ultimos registro cada 15 minutos 73
| N° | Estación | Fecha / Hora | Temperatura | Humedad | Lluvia | Velocidad | Dirección | Radiación | Presion |
| 73 | Lebu INIA | 08-05-2026 18:00 | 9,2 | 94,7 | 0 | 1,8 | 187 | 9 | 1119 |
| 72 | Lebu INIA | 08-05-2026 17:45 | 9,5 | 94,9 | 0 | 2,3 | 205 | 13 | 1120 |
| 71 | Lebu INIA | 08-05-2026 17:30 | 9,6 | 95,1 | 0 | 3,3 | 201 | 32 | 1119 |
| 70 | Lebu INIA | 08-05-2026 17:15 | 9,7 | 95,3 | 0 | 3 | 198 | 24 | 1112 |
| 69 | Lebu INIA | 08-05-2026 17:00 | 9,9 | 95,9 | 0 | 3,6 | 189 | 37 | 1110 |
| 68 | Lebu INIA | 08-05-2026 16:45 | 10,3 | 96,3 | 0 | 2,7 | 203 | 53 | 1115 |
| 67 | Lebu INIA | 08-05-2026 16:30 | 10,6 | 96,7 | 0 | 2,8 | 207 | 86 | 1109 |
| 66 | Lebu INIA | 08-05-2026 16:15 | 10,5 | 97,2 | 0,1 | 3 | 208 | 144 | 1111 |
| 65 | Lebu INIA | 08-05-2026 16:00 | 10,9 | 96,7 | 0,1 | 3,5 | 209 | 70 | 1105 |
| 64 | Lebu INIA | 08-05-2026 15:45 | 11,6 | 96,8 | 0,1 | 2,5 | 206 | 98 | 1103 |
| 63 | Lebu INIA | 08-05-2026 15:30 | 11,7 | 96,3 | 0,1 | 2,2 | 207 | 137 | 1097 |
| 62 | Lebu INIA | 08-05-2026 15:15 | 11,9 | 96,4 | 0 | 2,1 | 210 | 192 | 1101 |
| 61 | Lebu INIA | 08-05-2026 15:00 | 12,1 | 96,4 | 0 | 1,6 | 202 | 253 | 1107 |
| 60 | Lebu INIA | 08-05-2026 14:45 | 12 | 96,8 | 0 | 1,9 | 205 | 209 | 0 |
| 59 | Lebu INIA | 08-05-2026 14:30 | 12,3 | 96,5 | 0,1 | 1,3 | 207 | 218 | 0 |
| 58 | Lebu INIA | 08-05-2026 14:15 | 12,1 | 96 | 0 | 1,3 | 214 | 408 | 1108 |
| 57 | Lebu INIA | 08-05-2026 14:00 | 11,9 | 96,4 | 0 | 1,3 | 218 | 210 | 1106 |
| 56 | Lebu INIA | 08-05-2026 13:45 | 11,8 | 97,3 | 0 | 2,1 | 212 | 286 | 1114 |
| 55 | Lebu INIA | 08-05-2026 13:30 | 11,7 | 97,6 | 0,1 | 2 | 215 | 259 | 1109 |
| 54 | Lebu INIA | 08-05-2026 13:15 | 12 | 96,6 | 0,2 | 1,9 | 203 | 228 | 1113 |
| 53 | Lebu INIA | 08-05-2026 13:00 | 11,9 | 96,4 | 0,2 | 2 | 205 | 197 | 1108 |
| 52 | Lebu INIA | 08-05-2026 12:45 | 12,1 | 95,8 | 0 | 1,9 | 203 | 250 | 1107 |
| 51 | Lebu INIA | 08-05-2026 12:30 | 12,1 | 96,2 | 0,1 | 1,7 | 212 | 159 | 1102 |
| 50 | Lebu INIA | 08-05-2026 12:15 | 12,2 | 96 | 0 | 1,3 | 208 | 396 | 1102 |
| 49 | Lebu INIA | 08-05-2026 12:00 | 11,8 | 96 | 0,5 | 1,6 | 210 | 184 | 1114 |
| 48 | Lebu INIA | 08-05-2026 11:45 | 11,7 | 95,5 | 0 | 1,9 | 201 | 245 | 1105 |
| 47 | Lebu INIA | 08-05-2026 11:30 | 11,8 | 95,3 | 0 | 2,6 | 211 | 187 | 1105 |
| 46 | Lebu INIA | 08-05-2026 11:15 | 11,6 | 96,7 | 0 | 1,4 | 210 | 349 | 1116 |
| 45 | Lebu INIA | 08-05-2026 11:00 | 11,4 | 97,1 | 0 | 2 | 209 | 130 | 1117 |
| 44 | Lebu INIA | 08-05-2026 10:45 | 11,3 | 98,4 | 0 | 2,4 | 185 | 170 | 1109 |
| 43 | Lebu INIA | 08-05-2026 10:30 | 11,3 | 99,9 | 0 | 2 | 194 | 155 | 1113 |
| 42 | Lebu INIA | 08-05-2026 10:15 | 11 | 100 | 0 | 1,8 | 184 | 211 | 1114 |
| 41 | Lebu INIA | 08-05-2026 10:00 | 10,8 | 100 | 0 | 2,6 | 176 | 205 | 1115 |
| 40 | Lebu INIA | 08-05-2026 09:45 | 10,6 | 100 | 0 | 1,9 | 198 | 97 | 1116 |
| 39 | Lebu INIA | 08-05-2026 09:30 | 9,9 | 0,4 | 0,1 | 0,2 | 205 | 46 | 1120 |
| 38 | Lebu INIA | 08-05-2026 09:15 | 9,6 | 100 | 0,1 | 0 | 0 | 84 | 1118 |
| 37 | Lebu INIA | 08-05-2026 09:00 | 9,1 | 100 | 0 | 0 | 0 | 70 | 1122 |
| 36 | Lebu INIA | 08-05-2026 08:45 | 8,9 | 100 | 0 | 0 | 0 | 28 | 1122 |
| 35 | Lebu INIA | 08-05-2026 08:30 | 8,8 | 100 | 0,1 | 0 | 0 | 11 | 1123 |
| 34 | Lebu INIA | 08-05-2026 08:15 | 8,7 | 100 | 0,2 | 0 | 0 | 6 | 1119 |
| 33 | Lebu INIA | 08-05-2026 08:00 | 8,6 | 100 | 0,2 | 0 | 0 | 5 | 1121 |
| 32 | Lebu INIA | 08-05-2026 07:45 | 8,5 | 100 | 0 | 0 | 0 | 1 | 1118 |
| 31 | Lebu INIA | 08-05-2026 07:30 | 8,5 | 100 | 0 | 0 | 0 | 0 | 1122 |
| 30 | Lebu INIA | 08-05-2026 07:15 | 8,5 | 100 | 0,6 | 0 | 0 | 0 | 1119 |
| 29 | Lebu INIA | 08-05-2026 07:00 | 8,4 | 100 | 0,2 | 0 | 0 | 0 | 1121 |
| 28 | Lebu INIA | 08-05-2026 06:45 | 8,4 | 99,8 | 0,5 | 0 | 0 | 0 | 1117 |
| 27 | Lebu INIA | 08-05-2026 06:30 | 8,4 | 99,6 | 0,4 | 0,7 | 12 | 0 | 1119 |
| 26 | Lebu INIA | 08-05-2026 06:15 | 8,4 | 99,5 | 0,3 | 1,2 | 25 | 0 | 1118 |
| 25 | Lebu INIA | 08-05-2026 06:00 | 8,4 | 99,4 | 0 | 2,4 | 22 | 0 | 1122 |
| 24 | Lebu INIA | 08-05-2026 05:45 | 8,4 | 99,5 | 0,1 | 2,5 | 22 | 0 | 1120 |
| 23 | Lebu INIA | 08-05-2026 05:30 | 8,4 | 99,5 | 0,3 | 3,1 | 22 | 0 | 1119 |
| 22 | Lebu INIA | 08-05-2026 05:15 | 8,5 | 99,6 | 0,6 | 3 | 25 | 0 | 1120 |
| 21 | Lebu INIA | 08-05-2026 05:00 | 8,5 | 99,6 | 0,2 | 3 | 28 | 0 | 0 |
| 20 | Lebu INIA | 08-05-2026 04:45 | 8,4 | 100 | 0,1 | 3,1 | 26 | 0 | 0 |
| 19 | Lebu INIA | 08-05-2026 04:30 | 8,3 | 100 | 0,1 | 3,4 | 31 | 0 | 1116 |
| 18 | Lebu INIA | 08-05-2026 04:15 | 8,2 | 99,7 | 0,1 | 3,6 | 27 | 0 | 1120 |
| 17 | Lebu INIA | 08-05-2026 04:00 | 8,2 | 99,5 | 0,5 | 3,2 | 27 | 0 | 1120 |
| 16 | Lebu INIA | 08-05-2026 03:45 | 8,2 | 99,4 | 0,4 | 3,1 | 27 | 0 | 1117 |
| 15 | Lebu INIA | 08-05-2026 03:30 | 8,3 | 99,3 | 0,2 | 3,4 | 26 | 0 | 1119 |
| 14 | Lebu INIA | 08-05-2026 03:15 | 8,2 | 99,4 | 0,1 | 3,3 | 30 | 0 | 1122 |
| 13 | Lebu INIA | 08-05-2026 03:00 | 8,2 | 98,7 | 0,1 | 3,5 | 26 | 0 | 1118 |
| 12 | Lebu INIA | 08-05-2026 02:45 | 8,2 | 98,6 | 0,1 | 3,1 | 23 | 0 | 1118 |
| 11 | Lebu INIA | 08-05-2026 02:30 | 8,1 | 98,5 | 0,1 | 3,7 | 23 | 0 | 1116 |
| 10 | Lebu INIA | 08-05-2026 02:15 | 8,1 | 98,3 | 0,2 | 3,3 | 24 | 0 | 1122 |
| 9 | Lebu INIA | 08-05-2026 02:00 | 8,1 | 98,3 | 0,2 | 3,4 | 22 | 0 | 1121 |
| 8 | Lebu INIA | 08-05-2026 01:45 | 8,1 | 98,2 | 0,1 | 3,2 | 26 | 0 | 1120 |
| 7 | Lebu INIA | 08-05-2026 01:30 | 8 | 98,1 | 0,1 | 3,1 | 26 | 0 | 1123 |
| 6 | Lebu INIA | 08-05-2026 01:15 | 7,9 | 97,7 | 0,1 | 2,8 | 23 | 0 | 1123 |
| 5 | Lebu INIA | 08-05-2026 01:00 | 7,9 | 97,5 | 0,1 | 2,8 | 25 | 0 | 1121 |
| 4 | Lebu INIA | 08-05-2026 00:45 | 7,9 | 97 | 0 | 2,9 | 24 | 0 | 1123 |
| 3 | Lebu INIA | 08-05-2026 00:30 | 7,9 | 96,6 | 0 | 3,2 | 25 | 0 | 1121 |
| 2 | Lebu INIA | 08-05-2026 00:15 | 7,8 | 96,5 | 0 | 3,1 | 22 | 0 | 1119 |
| 1 | Lebu INIA | 08-05-2026 00:00 | 7,8 | 96,8 | 0 | 2,9 | 22 | 0 | 1122 |